Terminal Aerodrome Forecast
Issued by NWS

Home | Current Version | Previous Version | Text Only | Print | Product List | Glossary On
Versions: 1 2 3 4 5 6 7 8 9 10 11 12 13 14 15 16 17 18
000
FTUS42 KJAX 281903 AAA
TAFCRG
TAF AMD
KCRG 281903Z 2819/2918 05008KT P6SM SKC
     FM290000 VRB03KT P6SM SKC
     FM291600 05007KT P6SM SKC=

USA.gov is the U.S. government's official web portal to all federal, state and local government web resources and services.